GLD1794 SASA-SANT
Flight info
| Callsign | GLD1794 |
|---|---|
| Flight time | 0h 31m |
| Altitude | 17000 |
| Route | SAL DCT PONPI DCT TUC |
| Aircraft | A319/M-SDE3FGHIRWY/LB1 |
Departure
| Time | 2026-05-07 13:55 |
|---|---|
| Airport | Martín Miguel de Güemes International Airport (SASA) |
Arrival
| Time | 2026-05-07 14:27 |
|---|---|
| Airport | Teniente Benjamín Matienzo International Airport (SANT) |
| Time | Latitude | Longitude | Altitude | Speed | Heading |
|---|---|---|---|---|---|
| 2026-05-07 13:49 | -24.84466 | -65.47934 | 4068 ft | 0 kts | 158° |
| 2026-05-07 13:52 | -24.84472 | -65.47933 | 4069 ft | 2 kts | 169° |
| 2026-05-07 13:52 | -24.84497 | -65.47947 | 4071 ft | 7 kts | 229° |
| 2026-05-07 13:53 | -24.84518 | -65.48022 | 4063 ft | 13 kts | 253° |
| 2026-05-07 13:53 | -24.84550 | -65.48133 | 4057 ft | 17 kts | 252° |
| 2026-05-07 13:53 | -24.84592 | -65.48271 | 4052 ft | 21 kts | 251° |
| 2026-05-07 13:53 | -24.84663 | -65.48387 | 4050 ft | 16 kts | 232° |
| 2026-05-07 13:54 | -24.84719 | -65.48434 | 4051 ft | 0 kts | 192° |
| 2026-05-07 13:54 | -24.84727 | -65.48436 | 4051 ft | 8 kts | 193° |
| 2026-05-07 13:54 | -24.85033 | -65.48502 | 4055 ft | 80 kts | 191° |
| 2026-05-07 13:55 | -24.85780 | -65.48664 | 4064 ft | 137 kts | 191° |
| 2026-05-07 13:55 | -24.86831 | -65.48897 | 4296 ft | 159 kts | 191° |
| 2026-05-07 13:55 | -24.87903 | -65.49122 | 4875 ft | 156 kts | 189° |
| 2026-05-07 13:55 | -24.88974 | -65.49354 | 5335 ft | 157 kts | 188° |
| 2026-05-07 13:56 | -24.90057 | -65.49597 | 5790 ft | 164 kts | 188° |
| 2026-05-07 13:56 | -24.91256 | -65.49585 | 5980 ft | 184 kts | 160° |
| 2026-05-07 13:56 | -24.92544 | -65.49105 | 6179 ft | 207 kts | 163° |
| 2026-05-07 13:56 | -24.94046 | -65.48767 | 6356 ft | 234 kts | 168° |
| 2026-05-07 13:57 | -24.95737 | -65.48462 | 6668 ft | 258 kts | 168° |
| 2026-05-07 13:57 | -24.97580 | -65.48133 | 7105 ft | 276 kts | 169° |
| 2026-05-07 13:57 | -24.99509 | -65.47778 | 7707 ft | 285 kts | 170° |
| 2026-05-07 13:57 | -25.01465 | -65.47402 | 8365 ft | 292 kts | 171° |
| 2026-05-07 13:58 | -25.03488 | -65.46996 | 9063 ft | 298 kts | 171° |
| 2026-05-07 13:58 | -25.05537 | -65.46570 | 9814 ft | 301 kts | 169° |
| 2026-05-07 13:58 | -25.07663 | -65.46120 | 10114 ft | 322 kts | 170° |
| 2026-05-07 13:58 | -25.09925 | -65.45638 | 10451 ft | 338 kts | 171° |
| 2026-05-07 13:59 | -25.12253 | -65.45138 | 11063 ft | 343 kts | 170° |
| 2026-05-07 13:59 | -25.14610 | -65.44628 | 11722 ft | 347 kts | 171° |
| 2026-05-07 13:59 | -25.16993 | -65.44115 | 12380 ft | 351 kts | 171° |
| 2026-05-07 13:59 | -25.19410 | -65.43597 | 13034 ft | 355 kts | 172° |
| 2026-05-07 14:00 | -25.21853 | -65.43075 | 13678 ft | 359 kts | 172° |
| 2026-05-07 14:00 | -25.24320 | -65.42549 | 14281 ft | 362 kts | 173° |
| 2026-05-07 14:00 | -25.26810 | -65.42018 | 14934 ft | 365 kts | 174° |
| 2026-05-07 14:00 | -25.29310 | -65.41483 | 15586 ft | 367 kts | 174° |
| 2026-05-07 14:01 | -25.31826 | -65.40945 | 16255 ft | 370 kts | 176° |
| 2026-05-07 14:01 | -25.34373 | -65.40402 | 16656 ft | 374 kts | 177° |
| 2026-05-07 14:01 | -25.36927 | -65.39856 | 16755 ft | 369 kts | 178° |
| 2026-05-07 14:01 | -25.39386 | -65.39317 | 16778 ft | 353 kts | 178° |
| 2026-05-07 14:02 | -25.41780 | -65.38791 | 16806 ft | 350 kts | 178° |
| 2026-05-07 14:02 | -25.44135 | -65.38280 | 16811 ft | 349 kts | 178° |
| 2026-05-07 14:02 | -25.46515 | -65.37768 | 16808 ft | 349 kts | 178° |
| 2026-05-07 14:02 | -25.48898 | -65.37259 | 16809 ft | 348 kts | 178° |
| 2026-05-07 14:03 | -25.51278 | -65.36754 | 16811 ft | 349 kts | 178° |
| 2026-05-07 14:03 | -25.53660 | -65.36253 | 16854 ft | 348 kts | 178° |
| 2026-05-07 14:03 | -25.56043 | -65.35748 | 16830 ft | 348 kts | 178° |
| 2026-05-07 14:03 | -25.58419 | -65.35236 | 16870 ft | 348 kts | 178° |
| 2026-05-07 14:04 | -25.60799 | -65.34721 | 16858 ft | 349 kts | 178° |
| 2026-05-07 14:04 | -25.63182 | -65.34206 | 16857 ft | 348 kts | 178° |
| 2026-05-07 14:04 | -25.65555 | -65.33692 | 16886 ft | 347 kts | 178° |
| 2026-05-07 14:04 | -25.67928 | -65.33180 | 16885 ft | 347 kts | 179° |
| 2026-05-07 14:05 | -25.70295 | -65.32670 | 16884 ft | 346 kts | 178° |
| 2026-05-07 14:05 | -25.72660 | -65.32160 | 16883 ft | 346 kts | 178° |
| 2026-05-07 14:05 | -25.75026 | -65.31655 | 16886 ft | 346 kts | 178° |
| 2026-05-07 14:05 | -25.77391 | -65.31163 | 16884 ft | 345 kts | 179° |
| 2026-05-07 14:06 | -25.79759 | -65.30708 | 16878 ft | 344 kts | 180° |
| 2026-05-07 14:06 | -25.82098 | -65.30277 | 16881 ft | 345 kts | 180° |
| 2026-05-07 14:06 | -25.84467 | -65.29843 | 16879 ft | 345 kts | 180° |
| 2026-05-07 14:06 | -25.86842 | -65.29403 | 16913 ft | 345 kts | 179° |
| 2026-05-07 14:07 | -25.89211 | -65.28965 | 16899 ft | 345 kts | 179° |
| 2026-05-07 14:07 | -25.91583 | -65.28524 | 16891 ft | 345 kts | 180° |
| 2026-05-07 14:07 | -25.93948 | -65.28080 | 16890 ft | 345 kts | 179° |
| 2026-05-07 14:07 | -25.96321 | -65.27631 | 16889 ft | 346 kts | 179° |
| 2026-05-07 14:08 | -25.98698 | -65.27178 | 16890 ft | 347 kts | 179° |
| 2026-05-07 14:08 | -26.01081 | -65.26723 | 16891 ft | 347 kts | 179° |
| 2026-05-07 14:08 | -26.03461 | -65.26273 | 16891 ft | 347 kts | 179° |
| 2026-05-07 14:08 | -26.05841 | -65.25826 | 16892 ft | 347 kts | 179° |
| 2026-05-07 14:09 | -26.08228 | -65.25378 | 16898 ft | 347 kts | 179° |
| 2026-05-07 14:09 | -26.10613 | -65.24929 | 16899 ft | 347 kts | 179° |
| 2026-05-07 14:09 | -26.12958 | -65.24485 | 16899 ft | 347 kts | 179° |
| 2026-05-07 14:09 | -26.15338 | -65.24035 | 16900 ft | 347 kts | 179° |
| 2026-05-07 14:10 | -26.17718 | -65.23584 | 16903 ft | 347 kts | 179° |
| 2026-05-07 14:10 | -26.20097 | -65.23132 | 16892 ft | 347 kts | 179° |
| 2026-05-07 14:10 | -26.22475 | -65.22679 | 16892 ft | 347 kts | 179° |
| 2026-05-07 14:10 | -26.24857 | -65.22225 | 16892 ft | 347 kts | 179° |
| 2026-05-07 14:11 | -26.27237 | -65.21773 | 16895 ft | 347 kts | 179° |
| 2026-05-07 14:11 | -26.29620 | -65.21323 | 16903 ft | 347 kts | 179° |
| 2026-05-07 14:11 | -26.31999 | -65.20874 | 16903 ft | 347 kts | 179° |
| 2026-05-07 14:11 | -26.34383 | -65.20425 | 16902 ft | 347 kts | 179° |
| 2026-05-07 14:12 | -26.36768 | -65.19973 | 16903 ft | 347 kts | 179° |
| 2026-05-07 14:12 | -26.39148 | -65.19522 | 16904 ft | 347 kts | 179° |
| 2026-05-07 14:12 | -26.41534 | -65.19068 | 16907 ft | 349 kts | 179° |
| 2026-05-07 14:12 | -26.43932 | -65.18612 | 16894 ft | 350 kts | 179° |
| 2026-05-07 14:13 | -26.46335 | -65.18154 | 16888 ft | 351 kts | 179° |
| 2026-05-07 14:13 | -26.48763 | -65.17399 | 16871 ft | 372 kts | 161° |
| 2026-05-07 14:13 | -26.50878 | -65.15770 | 16655 ft | 371 kts | 140° |
| 2026-05-07 14:13 | -26.52371 | -65.13425 | 16185 ft | 372 kts | 116° |
| 2026-05-07 14:14 | -26.53070 | -65.10650 | 15422 ft | 375 kts | 95° |
| 2026-05-07 14:14 | -26.53231 | -65.07712 | 14467 ft | 383 kts | 90° |
| 2026-05-07 14:14 | -26.53347 | -65.04717 | 13524 ft | 389 kts | 90° |
| 2026-05-07 14:14 | -26.53458 | -65.01690 | 12502 ft | 390 kts | 90° |
| 2026-05-07 14:15 | -26.53508 | -64.98670 | 11515 ft | 389 kts | 91° |
| 2026-05-07 14:15 | -26.53480 | -64.95657 | 10612 ft | 386 kts | 90° |
| 2026-05-07 14:15 | -26.53405 | -64.92726 | 10213 ft | 367 kts | 90° |
| 2026-05-07 14:15 | -26.53290 | -64.89977 | 10046 ft | 343 kts | 91° |
| 2026-05-07 14:16 | -26.53178 | -64.87411 | 9970 ft | 317 kts | 95° |
| 2026-05-07 14:16 | -26.53537 | -64.85109 | 9975 ft | 287 kts | 115° |
| 2026-05-07 14:16 | -26.54419 | -64.83172 | 9778 ft | 277 kts | 132° |
| 2026-05-07 14:16 | -26.55750 | -64.81675 | 9211 ft | 265 kts | 150° |
| 2026-05-07 14:17 | -26.57292 | -64.80747 | 8958 ft | 249 kts | 164° |
| 2026-05-07 14:17 | -26.58958 | -64.80293 | 8541 ft | 247 kts | 176° |
| 2026-05-07 14:17 | -26.60671 | -64.80342 | 7896 ft | 247 kts | 190° |
| 2026-05-07 14:17 | -26.62294 | -64.80906 | 7476 ft | 241 kts | 204° |
| 2026-05-07 14:18 | -26.63699 | -64.81893 | 7273 ft | 239 kts | 216° |
| 2026-05-07 14:18 | -26.64831 | -64.83228 | 7108 ft | 232 kts | 229° |
| 2026-05-07 14:18 | -26.65599 | -64.84774 | 6972 ft | 231 kts | 242° |
| 2026-05-07 14:18 | -26.66024 | -64.86551 | 6822 ft | 243 kts | 256° |
| 2026-05-07 14:19 | -26.66020 | -64.88470 | 6670 ft | 252 kts | 272° |
| 2026-05-07 14:19 | -26.65545 | -64.90376 | 6514 ft | 258 kts | 286° |
| 2026-05-07 14:19 | -26.64884 | -64.92242 | 6357 ft | 258 kts | 285° |
| 2026-05-07 14:19 | -26.64236 | -64.94085 | 6187 ft | 250 kts | 284° |
| 2026-05-07 14:20 | -26.63613 | -64.95849 | 6024 ft | 237 kts | 284° |
| 2026-05-07 14:20 | -26.63024 | -64.97520 | 5887 ft | 227 kts | 284° |
| 2026-05-07 14:20 | -26.62461 | -64.99130 | 5746 ft | 218 kts | 284° |
| 2026-05-07 14:20 | -26.61922 | -65.00684 | 5627 ft | 213 kts | 283° |
| 2026-05-07 14:21 | -26.61427 | -65.02232 | 5485 ft | 207 kts | 269° |
| 2026-05-07 14:21 | -26.61354 | -65.03798 | 5272 ft | 201 kts | 252° |
| 2026-05-07 14:21 | -26.61965 | -65.05092 | 5145 ft | 192 kts | 212° |
| 2026-05-07 14:21 | -26.63142 | -65.05777 | 4989 ft | 195 kts | 196° |
| 2026-05-07 14:22 | -26.64440 | -65.06223 | 4826 ft | 193 kts | 194° |
| 2026-05-07 14:22 | -26.65684 | -65.06644 | 4629 ft | 181 kts | 193° |
| 2026-05-07 14:22 | -26.66837 | -65.07078 | 4493 ft | 167 kts | 195° |
| 2026-05-07 14:22 | -26.67876 | -65.07505 | 4290 ft | 149 kts | 195° |
| 2026-05-07 14:23 | -26.68826 | -65.07783 | 4146 ft | 136 kts | 181° |
| 2026-05-07 14:23 | -26.69763 | -65.07884 | 3966 ft | 134 kts | 184° |
| 2026-05-07 14:23 | -26.70684 | -65.08028 | 3787 ft | 133 kts | 184° |
| 2026-05-07 14:23 | -26.71605 | -65.08180 | 3611 ft | 134 kts | 186° |
| 2026-05-07 14:24 | -26.72521 | -65.08339 | 3487 ft | 133 kts | 187° |
| 2026-05-07 14:24 | -26.73428 | -65.08500 | 3314 ft | 131 kts | 186° |
| 2026-05-07 14:24 | -26.74337 | -65.08663 | 3140 ft | 133 kts | 187° |
| 2026-05-07 14:24 | -26.75244 | -65.08827 | 2955 ft | 132 kts | 187° |
| 2026-05-07 14:25 | -26.76143 | -65.08992 | 2795 ft | 130 kts | 186° |
| 2026-05-07 14:25 | -26.77031 | -65.09158 | 2625 ft | 129 kts | 186° |
| 2026-05-07 14:25 | -26.77931 | -65.09325 | 2446 ft | 132 kts | 187° |
| 2026-05-07 14:25 | -26.78825 | -65.09492 | 2258 ft | 132 kts | 189° |
| 2026-05-07 14:26 | -26.79733 | -65.09660 | 2075 ft | 133 kts | 189° |
| 2026-05-07 14:26 | -26.80640 | -65.09811 | 1905 ft | 131 kts | 190° |
| 2026-05-07 14:26 | -26.81546 | -65.09981 | 1732 ft | 134 kts | 193° |
| 2026-05-07 14:26 | -26.82476 | -65.10171 | 1570 ft | 136 kts | 192° |
| 2026-05-07 14:27 | -26.83390 | -65.10347 | 1477 ft | 123 kts | 190° |
| 2026-05-07 14:27 | -26.84000 | -65.10463 | 1465 ft | 46 kts | 189° |
| 2026-05-07 14:27 | -26.84175 | -65.10497 | 1469 ft | 16 kts | 198° |
| 2026-05-07 14:27 | -26.84154 | -65.10558 | 1462 ft | 10 kts | 346° |
| 2026-05-07 14:28 | -26.84113 | -65.10571 | 1468 ft | 8 kts | 341° |
| 2026-05-07 14:28 | -26.84068 | -65.10589 | 1466 ft | 5 kts | 340° |
| 2026-05-07 14:28 | -26.84042 | -65.10600 | 1467 ft | 3 kts | 339° |
| 2026-05-07 14:28 | -26.84025 | -65.10607 | 1468 ft | 2 kts | 339° |
| 2026-05-07 14:29 | -26.84006 | -65.10615 | 1472 ft | 5 kts | 340° |
| 2026-05-07 14:29 | -26.83963 | -65.10631 | 1471 ft | 8 kts | 341° |
| 2026-05-07 14:29 | -26.83897 | -65.10658 | 1474 ft | 12 kts | 339° |
| 2026-05-07 14:29 | -26.83818 | -65.10692 | 1470 ft | 11 kts | 339° |
| 2026-05-07 14:30 | -26.83755 | -65.10719 | 1476 ft | 8 kts | 340° |
| 2026-05-07 14:30 | -26.83699 | -65.10722 | 1470 ft | 8 kts | 9° |
| 2026-05-07 14:30 | -26.83653 | -65.10711 | 1467 ft | 5 kts | 12° |
| 2026-05-07 14:30 | -26.83622 | -65.10705 | 1476 ft | 5 kts | 4° |
| 2026-05-07 14:31 | -26.83604 | -65.10727 | 1473 ft | 4 kts | 278° |
| 2026-05-07 14:31 | -26.83600 | -65.10757 | 1478 ft | 4 kts | 278° |
| 2026-05-07 14:31 | -26.83597 | -65.10778 | 1479 ft | 2 kts | 279° |
| 2026-05-07 14:31 | -26.83597 | -65.10779 | 1479 ft | 0 kts | 279° |